Terminal Aerodrome Forecast
Issued by NWS Lake Charles, LA

Home | Current Version | Previous Version | Text Only | Print | Product List | Glossary On
Versions: 1 2 3 4 5 6 7 8 9 10 11 12 13 14
000
FTUS44 KLCH 311700
TAFLCH
TAF
KLCH 311722Z 3118/0118 16008KT P6SM VCSH SCT050 BKN200
     FM010100 VRB03KT P6SM SCT030 BKN150
     FM011300 23006KT P6SM VCSH BKN040 PROB30 0114/0118 5SM -SHRA=

USA.gov is the U.S. government's official web portal to all federal, state and local government web resources and services.